sensor_id;sensor_type;location;lat;lon;timestamp;pressure;altitude;pressure_sealevel;temperature;humidity
45525;BME280;31437;58.350;13.828;2023-02-28T00:00:31;102435.56;;;1.44;100.00
45525;BME280;31437;58.350;13.828;2023-02-28T00:02:57;102426.09;;;1.45;100.00
45525;BME280;31437;58.350;13.828;2023-02-28T00:05:23;102421.03;;;1.52;100.00
45525;BME280;31437;58.350;13.828;2023-02-28T00:07:49;102419.50;;;1.62;100.00
45525;BME280;31437;58.350;13.828;2023-02-28T00:10:16;102412.63;;;1.64;100.00
45525;BME280;31437;58.350;13.828;2023-02-28T00:12:45;102404.84;;;1.63;100.00
45525;BME280;31437;58.350;13.828;2023-02-28T00:15:11;102404.81;;;1.61;100.00
45525;BME280;31437;58.350;13.828;2023-02-28T00:17:37;102403.97;;;1.62;100.00
45525;BME280;31437;58.350;13.828;2023-02-28T00:20:02;102399.78;;;1.69;100.00
45525;BME280;31437;58.350;13.828;2023-02-28T00:22:29;102382.63;;;1.74;100.00
45525;BME280;31437;58.350;13.828;2023-02-28T00:24:54;102378.38;;;1.79;100.00
45525;BME280;31437;58.350;13.828;2023-02-28T00:27:20;102331.75;;;1.76;100.00
45525;BME280;31437;58.350;13.828;2023-02-28T00:29:46;102312.81;;;1.78;100.00
45525;BME280;31437;58.350;13.828;2023-02-28T00:32:11;102314.50;;;1.76;100.00
45525;BME280;31437;58.350;13.828;2023-02-28T00:34:36;102315.34;;;1.75;100.00
45525;BME280;31437;58.350;13.828;2023-02-28T00:37:06;102310.91;;;1.67;100.00
45525;BME280;31437;58.350;13.828;2023-02-28T00:39:33;102307.25;;;1.55;100.00
45525;BME280;31437;58.350;13.828;2023-02-28T00:41:59;102301.16;;;1.52;100.00
45525;BME280;31437;58.350;13.828;2023-02-28T00:44:24;102293.50;;;1.56;100.00
45525;BME280;31437;58.350;13.828;2023-02-28T00:46:49;102284.03;;;1.58;100.00
45525;BME280;31437;58.350;13.828;2023-02-28T00:49:14;102280.72;;;1.66;100.00
45525;BME280;31437;58.350;13.828;2023-02-28T00:51:40;102299.59;;;1.62;100.00
45525;BME280;31437;58.350;13.828;2023-02-28T00:54:05;102295.03;;;1.45;100.00
45525;BME280;31437;58.350;13.828;2023-02-28T00:56:30;102301.50;;;1.22;100.00
45525;BME280;31437;58.350;13.828;2023-02-28T00:58:55;102321.06;;;1.07;100.00
45525;BME280;31437;58.350;13.828;2023-02-28T01:01:21;102331.19;;;0.95;100.00
45525;BME280;31437;58.350;13.828;2023-02-28T01:03:46;102347.25;;;0.80;100.00
45525;BME280;31437;58.350;13.828;2023-02-28T01:06:11;102356.41;;;0.66;100.00
45525;BME280;31437;58.350;13.828;2023-02-28T01:08:37;102363.72;;;0.46;100.00
45525;BME280;31437;58.350;13.828;2023-02-28T01:11:12;102373.06;;;0.39;100.00
45525;BME280;31437;58.350;13.828;2023-02-28T01:13:37;102386.97;;;0.44;100.00
45525;BME280;31437;58.350;13.828;2023-02-28T01:16:03;102385.19;;;0.42;100.00
45525;BME280;31437;58.350;13.828;2023-02-28T01:18:28;102386.97;;;0.46;100.00
45525;BME280;31437;58.350;13.828;2023-02-28T01:20:54;102384.31;;;0.43;100.00
45525;BME280;31437;58.350;13.828;2023-02-28T01:23:19;102386.44;;;0.61;100.00
45525;BME280;31437;58.350;13.828;2023-02-28T01:25:46;102377.47;;;0.84;100.00
45525;BME280;31437;58.350;13.828;2023-02-28T01:28:11;102375.19;;;0.98;100.00
45525;BME280;31437;58.350;13.828;2023-02-28T01:30:37;102363.28;;;1.08;100.00
45525;BME280;31437;58.350;13.828;2023-02-28T01:33:02;102352.19;;;1.13;100.00
45525;BME280;31437;58.350;13.828;2023-02-28T01:35:27;102342.78;;;1.16;100.00
45525;BME280;31437;58.350;13.828;2023-02-28T01:37:52;102328.13;;;1.18;100.00
45525;BME280;31437;58.350;13.828;2023-02-28T01:40:18;102329.03;;;1.20;100.00
45525;BME280;31437;58.350;13.828;2023-02-28T01:42:43;102310.34;;;1.34;100.00
45525;BME280;31437;58.350;13.828;2023-02-28T01:45:30;102299.28;;;1.43;100.00
45525;BME280;31437;58.350;13.828;2023-02-28T01:47:58;102289.09;;;1.52;100.00
45525;BME280;31437;58.350;13.828;2023-02-28T01:50:26;102273.66;;;1.57;100.00
45525;BME280;31437;58.350;13.828;2023-02-28T01:52:53;102271.13;;;1.60;100.00
45525;BME280;31437;58.350;13.828;2023-02-28T01:55:19;102262.63;;;1.69;100.00
45525;BME280;31437;58.350;13.828;2023-02-28T01:57:48;102255.88;;;1.77;100.00
45525;BME280;31437;58.350;13.828;2023-02-28T02:00:14;102242.03;;;1.76;100.00
45525;BME280;31437;58.350;13.828;2023-02-28T02:02:41;102231.69;;;1.75;100.00
45525;BME280;31437;58.350;13.828;2023-02-28T02:05:10;102223.09;;;1.77;100.00
45525;BME280;31437;58.350;13.828;2023-02-28T02:07:36;102224.03;;;1.84;100.00
45525;BME280;31437;58.350;13.828;2023-02-28T02:10:26;102212.78;;;1.82;100.00
45525;BME280;31437;58.350;13.828;2023-02-28T02:12:53;102205.06;;;1.84;100.00
45525;BME280;31437;58.350;13.828;2023-02-28T02:17:56;102197.25;;;1.80;100.00
45525;BME280;31437;58.350;13.828;2023-02-28T02:20:37;102186.91;;;1.82;100.00
45525;BME280;31437;58.350;13.828;2023-02-28T02:25:40;102189.66;;;1.91;100.00
45525;BME280;31437;58.350;13.828;2023-02-28T02:28:22;102187.94;;;1.92;100.00
45525;BME280;31437;58.350;13.828;2023-02-28T02:31:05;102187.06;;;1.91;100.00
45525;BME280;31437;58.350;13.828;2023-02-28T02:36:25;102188.59;;;1.77;100.00
45525;BME280;31437;58.350;13.828;2023-02-28T02:38:58;102191.13;;;1.74;100.00
45525;BME280;31437;58.350;13.828;2023-02-28T02:41:34;102204.81;;;1.65;100.00
45525;BME280;31437;58.350;13.828;2023-02-28T02:44:06;102209.81;;;1.54;100.00
45525;BME280;31437;58.350;13.828;2023-02-28T02:46:42;102211.41;;;1.45;100.00
45525;BME280;31437;58.350;13.828;2023-02-28T02:49:09;102208.81;;;1.45;100.00
45525;BME280;31437;58.350;13.828;2023-02-28T02:51:38;102216.63;;;1.48;100.00
45525;BME280;31437;58.350;13.828;2023-02-28T02:54:15;102193.19;;;1.39;100.00
45525;BME280;31437;58.350;13.828;2023-02-28T02:56:42;102212.44;;;1.56;100.00
45525;BME280;31437;58.350;13.828;2023-02-28T02:59:09;102202.19;;;1.62;100.00
45525;BME280;31437;58.350;13.828;2023-02-28T03:01:35;102209.25;;;1.74;100.00
45525;BME280;31437;58.350;13.828;2023-02-28T03:04:04;102193.72;;;1.74;100.00
45525;BME280;31437;58.350;13.828;2023-02-28T03:06:31;102199.69;;;1.70;100.00
45525;BME280;31437;58.350;13.828;2023-02-28T03:08:56;102197.13;;;1.73;100.00
45525;BME280;31437;58.350;13.828;2023-02-28T03:11:22;102201.44;;;1.71;100.00
45525;BME280;31437;58.350;13.828;2023-02-28T03:19:22;102206.72;;;1.22;100.00
45525;BME280;31437;58.350;13.828;2023-02-28T03:24:27;102240.75;;;0.53;100.00
45525;BME280;31437;58.350;13.828;2023-02-28T03:26:58;102272.72;;;0.17;100.00
45525;BME280;31437;58.350;13.828;2023-02-28T03:29:33;102286.75;;;-0.11;100.00
45525;BME280;31437;58.350;13.828;2023-02-28T03:34:33;102322.50;;;-0.60;100.00
45525;BME280;31437;58.350;13.828;2023-02-28T03:37:01;102317.28;;;-0.63;100.00
45525;BME280;31437;58.350;13.828;2023-02-28T03:39:37;102310.94;;;-0.76;100.00
45525;BME280;31437;58.350;13.828;2023-02-28T03:42:26;102330.53;;;-0.82;100.00
45525;BME280;31437;58.350;13.828;2023-02-28T03:44:52;102347.47;;;-0.90;100.00
45525;BME280;31437;58.350;13.828;2023-02-28T03:49:53;102361.34;;;-1.17;100.00
45525;BME280;31437;58.350;13.828;2023-02-28T03:52:20;102374.81;;;-1.26;100.00
45525;BME280;31437;58.350;13.828;2023-02-28T03:54:48;102389.09;;;-1.07;100.00
45525;BME280;31437;58.350;13.828;2023-02-28T03:57:27;102405.13;;;-0.87;100.00
45525;BME280;31437;58.350;13.828;2023-02-28T04:00:03;102416.13;;;-0.93;100.00
45525;BME280;31437;58.350;13.828;2023-02-28T04:02:31;102411.25;;;-1.12;100.00
45525;BME280;31437;58.350;13.828;2023-02-28T04:04:56;102408.47;;;-1.20;100.00
45525;BME280;31437;58.350;13.828;2023-02-28T04:07:21;102413.38;;;-1.29;100.00
45525;BME280;31437;58.350;13.828;2023-02-28T04:09:47;102400.06;;;-1.43;100.00
45525;BME280;31437;58.350;13.828;2023-02-28T04:12:12;102398.91;;;-1.52;100.00
45525;BME280;31437;58.350;13.828;2023-02-28T04:14:37;102405.53;;;-1.61;100.00
45525;BME280;31437;58.350;13.828;2023-02-28T04:17:03;102402.75;;;-1.67;100.00
45525;BME280;31437;58.350;13.828;2023-02-28T04:19:28;102395.75;;;-1.71;100.00
45525;BME280;31437;58.350;13.828;2023-02-28T04:21:53;102392.19;;;-1.76;100.00
45525;BME280;31437;58.350;13.828;2023-02-28T04:24:20;102391.09;;;-1.83;100.00
45525;BME280;31437;58.350;13.828;2023-02-28T04:26:46;102370.28;;;-1.90;100.00
45525;BME280;31437;58.350;13.828;2023-02-28T04:29:13;102363.16;;;-1.99;100.00
45525;BME280;31437;58.350;13.828;2023-02-28T04:31:38;102363.81;;;-2.04;100.00
45525;BME280;31437;58.350;13.828;2023-02-28T04:34:04;102362.88;;;-2.07;100.00
45525;BME280;31437;58.350;13.828;2023-02-28T04:36:29;102355.25;;;-2.05;100.00
45525;BME280;31437;58.350;13.828;2023-02-28T04:38:55;102351.69;;;-2.09;100.00
45525;BME280;31437;58.350;13.828;2023-02-28T04:41:20;102354.09;;;-2.13;100.00
45525;BME280;31437;58.350;13.828;2023-02-28T04:43:46;102347.16;;;-2.16;100.00
45525;BME280;31437;58.350;13.828;2023-02-28T04:46:11;102341.94;;;-2.19;100.00
45525;BME280;31437;58.350;13.828;2023-02-28T04:48:37;102346.09;;;-2.22;100.00
45525;BME280;31437;58.350;13.828;2023-02-28T04:51:04;102349.38;;;-2.26;100.00
45525;BME280;31437;58.350;13.828;2023-02-28T04:53:30;102348.38;;;-2.32;100.00
45525;BME280;31437;58.350;13.828;2023-02-28T04:55:56;102348.19;;;-2.38;100.00
45525;BME280;31437;58.350;13.828;2023-02-28T04:58:21;102350.47;;;-2.45;100.00
45525;BME280;31437;58.350;13.828;2023-02-28T05:00:50;102346.88;;;-2.51;100.00
45525;BME280;31437;58.350;13.828;2023-02-28T05:03:15;102352.75;;;-2.55;100.00
45525;BME280;31437;58.350;13.828;2023-02-28T05:05:40;102350.00;;;-2.59;100.00
45525;BME280;31437;58.350;13.828;2023-02-28T05:08:05;102355.00;;;-2.64;100.00
45525;BME280;31437;58.350;13.828;2023-02-28T05:10:31;102357.34;;;-2.70;100.00
45525;BME280;31437;58.350;13.828;2023-02-28T05:12:57;102355.38;;;-2.77;100.00
45525;BME280;31437;58.350;13.828;2023-02-28T05:15:22;102351.06;;;-2.78;100.00
45525;BME280;31437;58.350;13.828;2023-02-28T05:17:47;102356.97;;;-2.81;100.00
45525;BME280;31437;58.350;13.828;2023-02-28T05:20:12;102347.44;;;-2.85;100.00
45525;BME280;31437;58.350;13.828;2023-02-28T05:22:41;102343.91;;;-2.87;100.00
45525;BME280;31437;58.350;13.828;2023-02-28T05:25:06;102348.88;;;-2.91;100.00
45525;BME280;31437;58.350;13.828;2023-02-28T05:27:32;102363.31;;;-2.95;100.00
45525;BME280;31437;58.350;13.828;2023-02-28T05:29:57;102357.03;;;-3.03;100.00
45525;BME280;31437;58.350;13.828;2023-02-28T05:32:23;102361.25;;;-3.05;100.00
45525;BME280;31437;58.350;13.828;2023-02-28T05:34:49;102355.19;;;-3.07;100.00
45525;BME280;31437;58.350;13.828;2023-02-28T05:37:14;102352.50;;;-3.10;100.00
45525;BME280;31437;58.350;13.828;2023-02-28T05:39:41;102354.94;;;-3.13;100.00
45525;BME280;31437;58.350;13.828;2023-02-28T05:42:06;102363.38;;;-3.17;100.00
45525;BME280;31437;58.350;13.828;2023-02-28T05:44:31;102361.50;;;-3.22;100.00
45525;BME280;31437;58.350;13.828;2023-02-28T05:46:57;102363.94;;;-3.25;100.00
45525;BME280;31437;58.350;13.828;2023-02-28T05:49:22;102359.66;;;-3.26;100.00
45525;BME280;31437;58.350;13.828;2023-02-28T05:51:47;102359.56;;;-3.27;100.00
45525;BME280;31437;58.350;13.828;2023-02-28T05:54:13;102363.94;;;-3.25;100.00
45525;BME280;31437;58.350;13.828;2023-02-28T05:56:38;102361.50;;;-3.22;100.00
45525;BME280;31437;58.350;13.828;2023-02-28T05:59:09;102357.53;;;-3.13;100.00
45525;BME280;31437;58.350;13.828;2023-02-28T06:01:35;102349.31;;;-3.03;100.00
45525;BME280;31437;58.350;13.828;2023-02-28T06:04:01;102355.56;;;-2.97;100.00
45525;BME280;31437;58.350;13.828;2023-02-28T06:06:28;102355.78;;;-2.90;100.00
45525;BME280;31437;58.350;13.828;2023-02-28T06:08:54;102360.31;;;-2.83;100.00
45525;BME280;31437;58.350;13.828;2023-02-28T06:11:20;102354.47;;;-2.79;100.00
45525;BME280;31437;58.350;13.828;2023-02-28T06:13:45;102371.66;;;-2.77;100.00
45525;BME280;31437;58.350;13.828;2023-02-28T06:16:11;102350.78;;;-2.86;100.00
45525;BME280;31437;58.350;13.828;2023-02-28T06:18:36;102380.72;;;-2.62;100.00
45525;BME280;31437;58.350;13.828;2023-02-28T06:21:02;102384.56;;;-2.51;100.00
45525;BME280;31437;58.350;13.828;2023-02-28T06:23:27;102390.31;;;-2.58;100.00
45525;BME280;31437;58.350;13.828;2023-02-28T06:25:52;102399.63;;;-2.62;100.00
45525;BME280;31437;58.350;13.828;2023-02-28T06:28:18;102411.75;;;-2.58;100.00
45525;BME280;31437;58.350;13.828;2023-02-28T06:30:43;102416.22;;;-2.52;100.00
45525;BME280;31437;58.350;13.828;2023-02-28T06:33:09;102410.75;;;-2.37;100.00
45525;BME280;31437;58.350;13.828;2023-02-28T06:35:34;102418.19;;;-2.19;100.00
45525;BME280;31437;58.350;13.828;2023-02-28T06:38:00;102433.38;;;-1.47;100.00
45525;BME280;31437;58.350;13.828;2023-02-28T06:40:26;102451.72;;;-0.49;100.00
45525;BME280;31437;58.350;13.828;2023-02-28T06:42:52;102470.13;;;0.31;100.00
45525;BME280;31437;58.350;13.828;2023-02-28T06:45:17;102485.59;;;1.05;100.00
45525;BME280;31437;58.350;13.828;2023-02-28T06:47:46;102488.34;;;1.55;100.00
45525;BME280;31437;58.350;13.828;2023-02-28T06:50:15;102499.56;;;2.01;100.00
45525;BME280;31437;58.350;13.828;2023-02-28T06:52:44;102514.13;;;2.45;100.00
45525;BME280;31437;58.350;13.828;2023-02-28T06:55:09;102521.75;;;2.90;100.00
45525;BME280;31437;58.350;13.828;2023-02-28T06:57:35;102531.06;;;3.40;100.00
45525;BME280;31437;58.350;13.828;2023-02-28T07:00:01;102530.94;;;4.05;100.00
45525;BME280;31437;58.350;13.828;2023-02-28T07:02:28;102525.47;;;4.71;100.00
45525;BME280;31437;58.350;13.828;2023-02-28T07:04:53;102495.47;;;5.37;100.00
45525;BME280;31437;58.350;13.828;2023-02-28T07:07:18;102460.97;;;6.07;100.00
45525;BME280;31437;58.350;13.828;2023-02-28T07:09:44;102426.16;;;6.57;100.00
45525;BME280;31437;58.350;13.828;2023-02-28T07:12:09;102379.09;;;6.96;100.00
45525;BME280;31437;58.350;13.828;2023-02-28T07:14:36;102289.25;;;7.34;100.00
45525;BME280;31437;58.350;13.828;2023-02-28T07:17:01;102153.25;;;7.57;100.00
45525;BME280;31437;58.350;13.828;2023-02-28T07:19:26;102035.41;;;7.83;100.00
45525;BME280;31437;58.350;13.828;2023-02-28T07:21:52;101919.94;;;8.15;100.00
45525;BME280;31437;58.350;13.828;2023-02-28T07:24:17;101834.94;;;8.42;100.00
45525;BME280;31437;58.350;13.828;2023-02-28T07:26:43;101754.47;;;8.55;100.00
45525;BME280;31437;58.350;13.828;2023-02-28T07:29:08;101649.50;;;8.70;100.00
45525;BME280;31437;58.350;13.828;2023-02-28T07:31:33;101595.38;;;8.33;100.00
45525;BME280;31437;58.350;13.828;2023-02-28T07:33:58;101569.06;;;8.43;100.00
45525;BME280;31437;58.350;13.828;2023-02-28T07:36:24;101520.72;;;8.22;100.00
45525;BME280;31437;58.350;13.828;2023-02-28T07:38:49;101499.53;;;7.95;100.00
45525;BME280;31437;58.350;13.828;2023-02-28T07:41:19;101508.66;;;8.14;100.00
45525;BME280;31437;58.350;13.828;2023-02-28T07:43:44;101488.00;;;8.43;100.00
45525;BME280;31437;58.350;13.828;2023-02-28T07:46:11;101468.44;;;8.57;100.00
45525;BME280;31437;58.350;13.828;2023-02-28T07:48:37;101450.31;;;8.84;100.00
45525;BME280;31437;58.350;13.828;2023-02-28T07:51:02;101417.44;;;9.05;100.00
45525;BME280;31437;58.350;13.828;2023-02-28T07:53:28;101398.75;;;8.87;100.00
45525;BME280;31437;58.350;13.828;2023-02-28T07:55:57;101407.44;;;8.88;100.00
45525;BME280;31437;58.350;13.828;2023-02-28T07:58:23;101401.69;;;8.75;100.00
45525;BME280;31437;58.350;13.828;2023-02-28T08:00:49;101412.59;;;8.91;100.00
45525;BME280;31437;58.350;13.828;2023-02-28T08:03:17;101406.59;;;8.87;100.00
45525;BME280;31437;58.350;13.828;2023-02-28T08:05:42;101404.97;;;8.83;100.00
45525;BME280;31437;58.350;13.828;2023-02-28T08:08:08;101398.41;;;8.69;100.00
45525;BME280;31437;58.350;13.828;2023-02-28T08:10:33;101409.22;;;8.87;100.00
45525;BME280;31437;58.350;13.828;2023-02-28T08:12:59;101399.28;;;9.00;100.00
45525;BME280;31437;58.350;13.828;2023-02-28T08:15:24;101392.47;;;8.93;100.00
45525;BME280;31437;58.350;13.828;2023-02-28T08:17:49;101370.22;;;8.78;100.00
45525;BME280;31437;58.350;13.828;2023-02-28T08:20:14;101376.81;;;8.60;100.00
45525;BME280;31437;58.350;13.828;2023-02-28T08:22:40;101382.56;;;8.40;100.00
45525;BME280;31437;58.350;13.828;2023-02-28T08:25:06;101384.47;;;8.34;100.00
45525;BME280;31437;58.350;13.828;2023-02-28T08:27:32;101390.84;;;8.24;100.00
45525;BME280;31437;58.350;13.828;2023-02-28T08:29:57;101391.31;;;8.38;100.00
45525;BME280;31437;58.350;13.828;2023-02-28T08:32:22;101377.59;;;8.30;100.00
45525;BME280;31437;58.350;13.828;2023-02-28T08:34:48;101390.47;;;8.37;100.00
45525;BME280;31437;58.350;13.828;2023-02-28T08:37:13;101387.63;;;8.47;100.00
45525;BME280;31437;58.350;13.828;2023-02-28T08:39:38;101388.53;;;8.46;100.00
45525;BME280;31437;58.350;13.828;2023-02-28T08:42:04;101391.06;;;8.50;100.00
45525;BME280;31437;58.350;13.828;2023-02-28T08:44:29;101387.53;;;8.51;100.00
45525;BME280;31437;58.350;13.828;2023-02-28T08:46:55;101391.25;;;8.43;100.00
45525;BME280;31437;58.350;13.828;2023-02-28T08:49:20;101378.53;;;8.27;100.00
45525;BME280;31437;58.350;13.828;2023-02-28T08:51:45;101389.78;;;8.31;100.00
45525;BME280;31437;58.350;13.828;2023-02-28T08:54:10;101378.50;;;8.29;100.00
45525;BME280;31437;58.350;13.828;2023-02-28T08:56:37;101376.72;;;8.29;100.00
45525;BME280;31437;58.350;13.828;2023-02-28T08:59:03;101386.38;;;8.27;100.00
45525;BME280;31437;58.350;13.828;2023-02-28T09:01:28;101365.81;;;8.13;100.00
45525;BME280;31437;58.350;13.828;2023-02-28T09:03:54;101369.59;;;8.02;100.00
45525;BME280;31437;58.350;13.828;2023-02-28T09:06:20;101371.84;;;7.81;100.00
45525;BME280;31437;58.350;13.828;2023-02-28T09:08:45;101397.81;;;7.87;100.00
45525;BME280;31437;58.350;13.828;2023-02-28T09:11:11;101392.84;;;7.77;100.00
45525;BME280;31437;58.350;13.828;2023-02-28T09:13:37;101407.50;;;7.82;100.00
45525;BME280;31437;58.350;13.828;2023-02-28T09:16:04;101415.53;;;7.74;100.00
45525;BME280;31437;58.350;13.828;2023-02-28T09:18:29;101424.28;;;7.73;100.00
45525;BME280;31437;58.350;13.828;2023-02-28T09:20:54;101451.88;;;7.85;100.00
45525;BME280;31437;58.350;13.828;2023-02-28T09:23:20;101446.44;;;7.54;100.00
45525;BME280;31437;58.350;13.828;2023-02-28T09:25:46;101462.47;;;7.37;100.00
45525;BME280;31437;58.350;13.828;2023-02-28T09:28:13;101444.81;;;7.07;100.00
45525;BME280;31437;58.350;13.828;2023-02-28T09:30:41;101470.44;;;6.85;100.00
45525;BME280;31437;58.350;13.828;2023-02-28T09:33:06;101495.91;;;6.72;100.00
45525;BME280;31437;58.350;13.828;2023-02-28T09:35:31;101519.53;;;6.63;100.00
45525;BME280;31437;58.350;13.828;2023-02-28T09:37:57;101531.66;;;6.64;100.00
45525;BME280;31437;58.350;13.828;2023-02-28T09:40:24;101543.06;;;6.58;100.00
45525;BME280;31437;58.350;13.828;2023-02-28T09:42:50;101549.19;;;6.55;100.00
45525;BME280;31437;58.350;13.828;2023-02-28T09:47:54;101580.31;;;6.66;100.00
45525;BME280;31437;58.350;13.828;2023-02-28T09:50:26;101582.88;;;6.69;100.00
45525;BME280;31437;58.350;13.828;2023-02-28T09:52:54;101593.34;;;6.66;100.00
45525;BME280;31437;58.350;13.828;2023-02-28T09:55:39;101596.91;;;6.60;100.00
45525;BME280;31437;58.350;13.828;2023-02-28T09:58:11;101599.63;;;6.53;100.00
45525;BME280;31437;58.350;13.828;2023-02-28T10:00:41;101605.88;;;6.41;100.00
45525;BME280;31437;58.350;13.828;2023-02-28T10:06:14;101621.81;;;6.20;100.00
45525;BME280;31437;58.350;13.828;2023-02-28T10:08:53;101632.09;;;6.30;100.00
45525;BME280;31437;58.350;13.828;2023-02-28T10:11:21;101662.41;;;6.37;100.00
45525;BME280;31437;58.350;13.828;2023-02-28T10:13:58;101654.50;;;6.45;100.00
45525;BME280;31437;58.350;13.828;2023-02-28T10:18:54;101658.84;;;6.43;100.00
45525;BME280;31437;58.350;13.828;2023-02-28T10:21:36;101664.03;;;6.48;100.00
45525;BME280;31437;58.350;13.828;2023-02-28T10:24:04;101656.34;;;6.37;100.00
45525;BME280;31437;58.350;13.828;2023-02-28T10:26:36;101664.16;;;6.39;100.00
45525;BME280;31437;58.350;13.828;2023-02-28T10:29:03;101665.91;;;6.36;100.00
45525;BME280;31437;58.350;13.828;2023-02-28T10:31:28;101671.13;;;6.35;100.00
45525;BME280;31437;58.350;13.828;2023-02-28T10:33:54;101679.06;;;6.27;100.00
45525;BME280;31437;58.350;13.828;2023-02-28T10:36:21;101690.38;;;6.25;100.00
45525;BME280;31437;58.350;13.828;2023-02-28T10:38:47;101703.41;;;6.25;100.00
45525;BME280;31437;58.350;13.828;2023-02-28T10:41:26;101705.16;;;6.23;100.00
45525;BME280;31437;58.350;13.828;2023-02-28T10:43:52;101708.66;;;6.22;100.00
45525;BME280;31437;58.350;13.828;2023-02-28T10:46:18;101702.63;;;6.17;100.00
45525;BME280;31437;58.350;13.828;2023-02-28T10:51:45;101713.88;;;6.22;100.00
45525;BME280;31437;58.350;13.828;2023-02-28T10:54:20;101708.59;;;6.28;100.00
45525;BME280;31437;58.350;13.828;2023-02-28T10:57:04;101709.50;;;6.24;100.00
45525;BME280;31437;58.350;13.828;2023-02-28T10:59:30;101699.88;;;6.29;100.00
45525;BME280;31437;58.350;13.828;2023-02-28T11:01:56;101693.78;;;6.30;100.00
45525;BME280;31437;58.350;13.828;2023-02-28T11:04:32;101701.66;;;6.25;100.00
45525;BME280;31437;58.350;13.828;2023-02-28T11:06:58;101701.69;;;6.22;100.00
45525;BME280;31437;58.350;13.828;2023-02-28T11:09:29;101703.41;;;6.25;100.00
45525;BME280;31437;58.350;13.828;2023-02-28T11:11:55;101702.59;;;6.20;100.00
45525;BME280;31437;58.350;13.828;2023-02-28T11:14:24;101696.47;;;6.24;100.00
45525;BME280;31437;58.350;13.828;2023-02-28T11:16:50;101716.31;;;6.34;100.00
45525;BME280;31437;58.350;13.828;2023-02-28T11:19:20;101707.53;;;6.41;100.00
45525;BME280;31437;58.350;13.828;2023-02-28T11:21:58;101673.72;;;6.35;100.00
45525;BME280;31437;58.350;13.828;2023-02-28T11:26:52;101682.31;;;6.43;100.00
45525;BME280;31437;58.350;13.828;2023-02-28T11:29:22;101677.91;;;6.48;100.00
45525;BME280;31437;58.350;13.828;2023-02-28T11:34:28;101650.94;;;6.51;100.00
45525;BME280;31437;58.350;13.828;2023-02-28T11:36:54;101653.41;;;6.58;100.00
45525;BME280;31437;58.350;13.828;2023-02-28T11:39:19;101640.38;;;6.60;100.00
45525;BME280;31437;58.350;13.828;2023-02-28T11:41:50;101634.16;;;6.67;100.00
45525;BME280;31437;58.350;13.828;2023-02-28T11:44:38;101623.69;;;6.72;100.00
45525;BME280;31437;58.350;13.828;2023-02-28T11:47:09;101626.94;;;6.85;100.00
45525;BME280;31437;58.350;13.828;2023-02-28T11:49:43;101622.53;;;6.88;100.00
45525;BME280;31437;58.350;13.828;2023-02-28T12:07:16;101542.09;;;7.15;100.00
45525;BME280;31437;58.350;13.828;2023-02-28T12:27:48;101548.19;;;7.14;100.00
45525;BME280;31437;58.350;13.828;2023-02-28T12:32:47;101554.44;;;7.05;100.00
45525;BME280;31437;58.350;13.828;2023-02-28T12:35:14;101558.00;;;6.99;100.00
45525;BME280;31437;58.350;13.828;2023-02-28T12:40:26;101583.44;;;6.87;100.00
45525;BME280;31437;58.350;13.828;2023-02-28T12:42:53;101590.53;;;6.80;100.00
45525;BME280;31437;58.350;13.828;2023-02-28T12:45:31;101601.13;;;6.69;100.00
45525;BME280;31437;58.350;13.828;2023-02-28T12:48:03;101616.88;;;6.62;100.00
45525;BME280;31437;58.350;13.828;2023-02-28T12:50:30;101634.41;;;6.53;100.00
45525;BME280;31437;58.350;13.828;2023-02-28T13:00:19;101669.38;;;6.37;100.00
45525;BME280;31437;58.350;13.828;2023-02-28T13:05:29;101686.72;;;6.40;100.00
45525;BME280;31437;58.350;13.828;2023-02-28T13:10:22;101679.75;;;6.40;100.00
45525;BME280;31437;58.350;13.828;2023-02-28T13:12:52;101667.59;;;6.39;100.00
45525;BME280;31437;58.350;13.828;2023-02-28T13:15:22;101650.22;;;6.40;100.00
45525;BME280;31437;58.350;13.828;2023-02-28T13:17:50;101640.66;;;6.42;100.00
45525;BME280;31437;58.350;13.828;2023-02-28T13:20:20;101628.50;;;6.39;100.00
45525;BME280;31437;58.350;13.828;2023-02-28T13:22:47;101631.97;;;6.38;100.00
45525;BME280;31437;58.350;13.828;2023-02-28T13:27:47;101619.06;;;6.30;100.00
45525;BME280;31437;58.350;13.828;2023-02-28T13:35:43;101636.50;;;6.27;100.00
45525;BME280;31437;58.350;13.828;2023-02-28T13:38:16;101642.56;;;6.27;100.00
45525;BME280;31437;58.350;13.828;2023-02-28T13:40:41;101650.34;;;6.29;100.00
45525;BME280;31437;58.350;13.828;2023-02-28T13:43:07;101662.53;;;6.30;100.00
45525;BME280;31437;58.350;13.828;2023-02-28T13:45:33;101660.81;;;6.27;100.00
45525;BME280;31437;58.350;13.828;2023-02-28T13:48:24;101656.47;;;6.26;100.00
45525;BME280;31437;58.350;13.828;2023-02-28T13:50:48;101659.97;;;6.25;100.00
45525;BME280;31437;58.350;13.828;2023-02-28T14:06:08;101632.41;;;6.07;100.00
45525;BME280;31437;58.350;13.828;2023-02-28T14:08:35;101629.84;;;6.03;100.00
45525;BME280;31437;58.350;13.828;2023-02-28T14:11:05;101633.38;;;6.00;100.00
45525;BME280;31437;58.350;13.828;2023-02-28T14:13:44;101629.91;;;5.98;100.00
45525;BME280;31437;58.350;13.828;2023-02-28T14:16:13;101630.81;;;5.94;100.00
45525;BME280;31437;58.350;13.828;2023-02-28T14:18:42;101640.38;;;5.94;100.00
45525;BME280;31437;58.350;13.828;2023-02-28T14:27:08;101630.06;;;5.81;100.00
45525;BME280;31437;58.350;13.828;2023-02-28T14:29:14;101631.00;;;5.77;100.00
45525;BME280;31437;58.350;13.828;2023-02-28T14:37:01;101657.13;;;5.66;100.00
45525;BME280;31437;58.350;13.828;2023-02-28T14:39:27;101668.50;;;5.59;100.00